sensor_id;sensor_type;location;lat;lon;timestamp;pressure;altitude;pressure_sealevel;temperature;humidity
73429;BME280;61643;49.564;17.412;2023-03-23T00:00:17;97805.81;;;8.19;86.41
73429;BME280;61643;49.564;17.412;2023-03-23T00:02:43;97812.22;;;8.18;86.52
73429;BME280;61643;49.564;17.412;2023-03-23T00:05:09;97810.56;;;8.12;86.33
73429;BME280;61643;49.564;17.412;2023-03-23T00:07:35;97809.19;;;8.10;86.63
73429;BME280;61643;49.564;17.412;2023-03-23T00:10:02;97813.75;;;8.09;87.03
73429;BME280;61643;49.564;17.412;2023-03-23T00:12:31;97810.44;;;8.02;86.98
73429;BME280;61643;49.564;17.412;2023-03-23T00:15:05;97811.78;;;8.05;86.87
73429;BME280;61643;49.564;17.412;2023-03-23T00:17:34;97811.97;;;8.20;86.78
73429;BME280;61643;49.564;17.412;2023-03-23T00:20:01;97809.44;;;8.30;86.55
73429;BME280;61643;49.564;17.412;2023-03-23T00:22:29;97807.94;;;8.17;86.72
73429;BME280;61643;49.564;17.412;2023-03-23T00:24:55;97808.91;;;8.11;87.67
73429;BME280;61643;49.564;17.412;2023-03-23T00:27:22;97811.38;;;8.13;86.75
73429;BME280;61643;49.564;17.412;2023-03-23T00:29:49;97808.69;;;7.91;87.84
73429;BME280;61643;49.564;17.412;2023-03-23T00:32:19;97808.25;;;7.99;87.88
73429;BME280;61643;49.564;17.412;2023-03-23T00:34:46;97796.16;;;7.97;87.80
73429;BME280;61643;49.564;17.412;2023-03-23T00:37:14;97803.25;;;7.86;87.92
73429;BME280;61643;49.564;17.412;2023-03-23T00:39:42;97800.03;;;7.84;88.17
73429;BME280;61643;49.564;17.412;2023-03-23T00:42:10;97794.09;;;7.82;88.24
73429;BME280;61643;49.564;17.412;2023-03-23T00:44:36;97797.78;;;7.76;88.18
73429;BME280;61643;49.564;17.412;2023-03-23T00:47:02;97786.66;;;7.67;87.73
73429;BME280;61643;49.564;17.412;2023-03-23T00:49:29;97797.03;;;7.59;87.89
73429;BME280;61643;49.564;17.412;2023-03-23T00:51:56;97790.47;;;7.50;88.45
73429;BME280;61643;49.564;17.412;2023-03-23T00:54:24;97782.84;;;7.41;89.88
73429;BME280;61643;49.564;17.412;2023-03-23T00:56:50;97779.84;;;7.38;89.76
73429;BME280;61643;49.564;17.412;2023-03-23T00:59:16;97783.97;;;7.46;89.91
73429;BME280;61643;49.564;17.412;2023-03-23T01:01:43;97777.03;;;7.45;89.70
73429;BME280;61643;49.564;17.412;2023-03-23T01:04:09;97774.06;;;7.46;89.96
73429;BME280;61643;49.564;17.412;2023-03-23T01:06:39;97785.41;;;7.53;90.08
73429;BME280;61643;49.564;17.412;2023-03-23T01:09:07;97776.84;;;7.73;89.58
73429;BME280;61643;49.564;17.412;2023-03-23T01:11:34;97777.09;;;7.71;89.19
73429;BME280;61643;49.564;17.412;2023-03-23T01:14:00;97778.91;;;7.66;89.49
73429;BME280;61643;49.564;17.412;2023-03-23T01:16:27;97770.06;;;7.65;89.39
73429;BME280;61643;49.564;17.412;2023-03-23T01:18:53;97766.44;;;7.55;89.92
73429;BME280;61643;49.564;17.412;2023-03-23T01:21:20;97768.72;;;7.46;90.48
73429;BME280;61643;49.564;17.412;2023-03-23T01:23:46;97766.63;;;7.48;90.43
73429;BME280;61643;49.564;17.412;2023-03-23T01:26:15;97764.75;;;7.49;90.56
73429;BME280;61643;49.564;17.412;2023-03-23T01:28:41;97768.81;;;7.51;90.41
73429;BME280;61643;49.564;17.412;2023-03-23T01:31:09;97759.41;;;7.49;90.53
73429;BME280;61643;49.564;17.412;2023-03-23T01:33:38;97750.41;;;7.38;90.86
73429;BME280;61643;49.564;17.412;2023-03-23T01:36:16;97754.59;;;7.51;90.64
73429;BME280;61643;49.564;17.412;2023-03-23T01:38:44;97752.47;;;7.53;90.69
73429;BME280;61643;49.564;17.412;2023-03-23T01:41:10;97752.16;;;7.49;90.85
73429;BME280;61643;49.564;17.412;2023-03-23T01:46:39;97741.72;;;7.48;90.45
73429;BME280;61643;49.564;17.412;2023-03-23T01:49:17;97743.34;;;7.49;90.21
73429;BME280;61643;49.564;17.412;2023-03-23T01:51:56;97748.03;;;7.41;90.72
73429;BME280;61643;49.564;17.412;2023-03-23T01:54:24;97763.88;;;7.43;90.55
73429;BME280;61643;49.564;17.412;2023-03-23T01:56:59;97757.06;;;7.35;90.95
73429;BME280;61643;49.564;17.412;2023-03-23T01:59:26;97756.56;;;7.38;91.12
73429;BME280;61643;49.564;17.412;2023-03-23T02:01:54;97752.22;;;7.32;90.84
73429;BME280;61643;49.564;17.412;2023-03-23T02:04:23;97757.00;;;7.30;91.08
73429;BME280;61643;49.564;17.412;2023-03-23T02:06:51;97768.09;;;7.39;91.01
73429;BME280;61643;49.564;17.412;2023-03-23T02:09:18;97759.81;;;7.40;90.58
73429;BME280;61643;49.564;17.412;2023-03-23T02:11:44;97754.09;;;7.54;90.43
73429;BME280;61643;49.564;17.412;2023-03-23T02:14:11;97752.63;;;7.63;90.29
73429;BME280;61643;49.564;17.412;2023-03-23T02:22:48;97755.97;;;7.75;89.72
73429;BME280;61643;49.564;17.412;2023-03-23T02:30:41;97753.25;;;7.70;89.99
73429;BME280;61643;49.564;17.412;2023-03-23T02:35:41;97745.38;;;7.41;90.82
73429;BME280;61643;49.564;17.412;2023-03-23T02:38:16;97749.16;;;7.46;91.35
73429;BME280;61643;49.564;17.412;2023-03-23T02:40:46;97745.53;;;7.52;90.68
73429;BME280;61643;49.564;17.412;2023-03-23T02:43:16;97740.59;;;7.65;91.08
73429;BME280;61643;49.564;17.412;2023-03-23T02:45:45;97745.22;;;7.70;90.22
73429;BME280;61643;49.564;17.412;2023-03-23T02:48:14;97747.38;;;7.73;90.18
73429;BME280;61643;49.564;17.412;2023-03-23T02:50:44;97754.28;;;7.69;90.61
73429;BME280;61643;49.564;17.412;2023-03-23T02:53:13;97755.22;;;7.58;91.12
73429;BME280;61643;49.564;17.412;2023-03-23T02:55:42;97751.53;;;7.42;91.73
73429;BME280;61643;49.564;17.412;2023-03-23T02:58:10;97741.91;;;7.63;91.65
73429;BME280;61643;49.564;17.412;2023-03-23T03:00:38;97745.25;;;7.97;89.41
73429;BME280;61643;49.564;17.412;2023-03-23T03:03:06;97747.38;;;8.21;88.47
73429;BME280;61643;49.564;17.412;2023-03-23T03:08:30;97736.75;;;8.58;85.88
73429;BME280;61643;49.564;17.412;2023-03-23T03:11:11;97744.13;;;8.73;85.31
73429;BME280;61643;49.564;17.412;2023-03-23T03:13:52;97739.91;;;8.82;84.36
73429;BME280;61643;49.564;17.412;2023-03-23T03:16:30;97739.91;;;8.82;84.74
73429;BME280;61643;49.564;17.412;2023-03-23T03:21:52;97746.81;;;8.73;84.60
73429;BME280;61643;49.564;17.412;2023-03-23T03:24:21;97763.22;;;8.76;84.91
73429;BME280;61643;49.564;17.412;2023-03-23T03:26:50;97755.84;;;8.62;86.02
73429;BME280;61643;49.564;17.412;2023-03-23T03:29:20;97760.88;;;8.53;86.66
73429;BME280;61643;49.564;17.412;2023-03-23T03:31:51;97757.78;;;8.39;86.85
73429;BME280;61643;49.564;17.412;2023-03-23T03:34:21;97746.59;;;8.48;86.24
73429;BME280;61643;49.564;17.412;2023-03-23T03:36:48;97750.16;;;8.53;85.56
73429;BME280;61643;49.564;17.412;2023-03-23T03:39:16;97752.63;;;8.60;85.32
73429;BME280;61643;49.564;17.412;2023-03-23T03:41:43;97748.25;;;8.54;85.60
73429;BME280;61643;49.564;17.412;2023-03-23T03:44:10;97742.72;;;8.65;84.91
73429;BME280;61643;49.564;17.412;2023-03-23T03:46:36;97743.59;;;8.71;84.63
73429;BME280;61643;49.564;17.412;2023-03-23T03:49:05;97746.34;;;8.81;84.33
73429;BME280;61643;49.564;17.412;2023-03-23T03:51:34;97752.31;;;8.88;83.55
73429;BME280;61643;49.564;17.412;2023-03-23T03:54:01;97745.88;;;8.89;83.69
73429;BME280;61643;49.564;17.412;2023-03-23T03:56:27;97743.50;;;8.93;83.35
73429;BME280;61643;49.564;17.412;2023-03-23T03:58:53;97741.34;;;8.95;82.70
73429;BME280;61643;49.564;17.412;2023-03-23T04:01:21;97740.53;;;8.94;83.29
73429;BME280;61643;49.564;17.412;2023-03-23T04:03:48;97741.63;;;8.98;82.73
73429;BME280;61643;49.564;17.412;2023-03-23T04:06:15;97748.38;;;9.01;82.38
73429;BME280;61643;49.564;17.412;2023-03-23T04:08:41;97746.25;;;9.03;82.37
73429;BME280;61643;49.564;17.412;2023-03-23T04:11:09;97736.59;;;9.07;82.26
73429;BME280;61643;49.564;17.412;2023-03-23T04:13:36;97733.66;;;9.08;81.95
73429;BME280;61643;49.564;17.412;2023-03-23T04:16:02;97734.97;;;9.06;81.98
73429;BME280;61643;49.564;17.412;2023-03-23T04:18:30;97735.50;;;9.03;82.41
73429;BME280;61643;49.564;17.412;2023-03-23T04:20:58;97729.28;;;8.97;82.13
73429;BME280;61643;49.564;17.412;2023-03-23T04:23:28;97729.78;;;8.94;82.15
73429;BME280;61643;49.564;17.412;2023-03-23T04:25:56;97723.38;;;8.95;82.80
73429;BME280;61643;49.564;17.412;2023-03-23T04:28:24;97720.72;;;9.00;82.11
73429;BME280;61643;49.564;17.412;2023-03-23T04:30:51;97713.78;;;9.04;81.32
73429;BME280;61643;49.564;17.412;2023-03-23T04:33:26;97706.03;;;9.13;80.84
73429;BME280;61643;49.564;17.412;2023-03-23T04:35:53;97704.50;;;9.22;80.49
73429;BME280;61643;49.564;17.412;2023-03-23T04:38:21;97696.94;;;9.19;80.90
73429;BME280;61643;49.564;17.412;2023-03-23T04:40:50;97698.56;;;9.20;80.75
73429;BME280;61643;49.564;17.412;2023-03-23T04:43:21;97697.75;;;9.19;80.05
73429;BME280;61643;49.564;17.412;2023-03-23T04:45:58;97702.31;;;9.19;80.74
73429;BME280;61643;49.564;17.412;2023-03-23T04:48:28;97714.13;;;9.23;80.21
73429;BME280;61643;49.564;17.412;2023-03-23T04:50:55;97718.19;;;9.25;80.76
73429;BME280;61643;49.564;17.412;2023-03-23T04:53:22;97723.28;;;9.22;80.32
73429;BME280;61643;49.564;17.412;2023-03-23T04:55:48;97716.34;;;9.31;79.47
73429;BME280;61643;49.564;17.412;2023-03-23T04:58:15;97719.31;;;9.29;80.12
73429;BME280;61643;49.564;17.412;2023-03-23T05:00:42;97726.53;;;9.29;79.56
73429;BME280;61643;49.564;17.412;2023-03-23T05:03:18;97735.09;;;9.21;80.93
73429;BME280;61643;49.564;17.412;2023-03-23T05:05:44;97743.38;;;9.19;81.04
73429;BME280;61643;49.564;17.412;2023-03-23T05:08:21;97723.41;;;9.00;82.14
73429;BME280;61643;49.564;17.412;2023-03-23T05:10:56;97732.56;;;9.04;81.92
73429;BME280;61643;49.564;17.412;2023-03-23T05:13:22;97737.94;;;9.04;81.80
73429;BME280;61643;49.564;17.412;2023-03-23T05:15:48;97746.75;;;9.00;82.09
73429;BME280;61643;49.564;17.412;2023-03-23T05:18:15;97751.91;;;9.06;81.72
73429;BME280;61643;49.564;17.412;2023-03-23T05:20:41;97755.13;;;9.08;81.95
73429;BME280;61643;49.564;17.412;2023-03-23T05:23:08;97749.97;;;9.02;82.73
73429;BME280;61643;49.564;17.412;2023-03-23T05:25:35;97751.06;;;9.01;82.81
73429;BME280;61643;49.564;17.412;2023-03-23T05:28:03;97757.56;;;9.10;81.68
73429;BME280;61643;49.564;17.412;2023-03-23T05:30:30;97754.13;;;9.19;82.04
73429;BME280;61643;49.564;17.412;2023-03-23T05:32:56;97766.00;;;9.28;81.83
73429;BME280;61643;49.564;17.412;2023-03-23T05:35:22;97771.97;;;9.35;81.57
73429;BME280;61643;49.564;17.412;2023-03-23T05:37:48;97776.03;;;9.43;81.86
73429;BME280;61643;49.564;17.412;2023-03-23T05:40:14;97769.34;;;9.46;82.03
73429;BME280;61643;49.564;17.412;2023-03-23T05:42:41;97772.88;;;9.56;81.16
73429;BME280;61643;49.564;17.412;2023-03-23T05:45:08;97776.44;;;9.67;80.63
73429;BME280;61643;49.564;17.412;2023-03-23T05:47:35;97766.53;;;9.72;80.75
73429;BME280;61643;49.564;17.412;2023-03-23T05:50:02;97776.47;;;9.77;81.26
73429;BME280;61643;49.564;17.412;2023-03-23T05:52:28;97771.94;;;9.82;80.20
73429;BME280;61643;49.564;17.412;2023-03-23T05:54:54;97776.81;;;9.96;80.05
73429;BME280;61643;49.564;17.412;2023-03-23T05:57:20;97784.88;;;9.96;80.76
73429;BME280;61643;49.564;17.412;2023-03-23T05:59:47;97794.31;;;9.98;80.35
73429;BME280;61643;49.564;17.412;2023-03-23T06:02:13;97795.91;;;9.94;79.68
73429;BME280;61643;49.564;17.412;2023-03-23T06:04:40;97804.75;;;9.89;80.25
73429;BME280;61643;49.564;17.412;2023-03-23T06:07:07;97798.03;;;9.92;79.37
73429;BME280;61643;49.564;17.412;2023-03-23T06:09:33;97794.53;;;9.86;80.53
73429;BME280;61643;49.564;17.412;2023-03-23T06:11:59;97787.28;;;9.87;80.22
73429;BME280;61643;49.564;17.412;2023-03-23T06:14:25;97797.47;;;9.85;81.62
73429;BME280;61643;49.564;17.412;2023-03-23T06:16:51;97800.16;;;9.80;82.19
73429;BME280;61643;49.564;17.412;2023-03-23T06:19:17;97795.81;;;9.74;80.86
73429;BME280;61643;49.564;17.412;2023-03-23T06:21:43;97793.41;;;9.72;81.05
73429;BME280;61643;49.564;17.412;2023-03-23T06:24:09;97798.78;;;9.72;81.37
73429;BME280;61643;49.564;17.412;2023-03-23T06:26:37;97796.34;;;9.71;81.83
73429;BME280;61643;49.564;17.412;2023-03-23T06:29:05;97795.25;;;9.67;81.66
73429;BME280;61643;49.564;17.412;2023-03-23T06:31:42;97803.31;;;9.67;82.14
73429;BME280;61643;49.564;17.412;2023-03-23T06:34:08;97808.72;;;9.72;81.86
73429;BME280;61643;49.564;17.412;2023-03-23T06:36:36;97792.31;;;9.68;83.45
73429;BME280;61643;49.564;17.412;2023-03-23T06:39:02;97795.75;;;9.64;83.59
73429;BME280;61643;49.564;17.412;2023-03-23T06:41:32;97796.88;;;9.68;82.23
73429;BME280;61643;49.564;17.412;2023-03-23T06:43:59;97794.47;;;9.71;82.46
73429;BME280;61643;49.564;17.412;2023-03-23T06:46:25;97794.78;;;9.80;81.59
73429;BME280;61643;49.564;17.412;2023-03-23T06:48:51;97792.09;;;9.80;81.50
73429;BME280;61643;49.564;17.412;2023-03-23T06:51:18;97793.16;;;9.84;80.57
73429;BME280;61643;49.564;17.412;2023-03-23T06:53:44;97800.94;;;9.80;81.17
73429;BME280;61643;49.564;17.412;2023-03-23T06:56:10;97816.56;;;9.83;80.32
73429;BME280;61643;49.564;17.412;2023-03-23T06:58:38;97820.91;;;9.89;80.42
73429;BME280;61643;49.564;17.412;2023-03-23T07:01:05;97821.41;;;9.86;80.41
73429;BME280;61643;49.564;17.412;2023-03-23T07:03:31;97838.41;;;9.97;80.22
73429;BME280;61643;49.564;17.412;2023-03-23T07:05:58;97830.59;;;9.96;81.36
73429;BME280;61643;49.564;17.412;2023-03-23T07:08:25;97836.53;;;10.03;81.33
73429;BME280;61643;49.564;17.412;2023-03-23T07:10:53;97833.59;;;10.04;81.57
73429;BME280;61643;49.564;17.412;2023-03-23T07:13:20;97835.47;;;10.04;80.49
73429;BME280;61643;49.564;17.412;2023-03-23T07:15:45;97833.84;;;10.03;80.91
73429;BME280;61643;49.564;17.412;2023-03-23T07:18:12;97829.56;;;10.02;81.23
73429;BME280;61643;49.564;17.412;2023-03-23T07:20:38;97827.41;;;10.04;80.67
73429;BME280;61643;49.564;17.412;2023-03-23T07:23:04;97826.06;;;10.06;80.05
73429;BME280;61643;49.564;17.412;2023-03-23T07:25:34;97820.69;;;10.06;80.59
73429;BME280;61643;49.564;17.412;2023-03-23T07:28:00;97820.16;;;10.09;80.51
73429;BME280;61643;49.564;17.412;2023-03-23T07:30:28;97819.09;;;10.10;80.12
73429;BME280;61643;49.564;17.412;2023-03-23T07:32:57;97818.56;;;10.13;80.31
73429;BME280;61643;49.564;17.412;2023-03-23T07:35:24;97825.34;;;10.16;80.43
73429;BME280;61643;49.564;17.412;2023-03-23T07:37:51;97824.00;;;10.18;80.13
73429;BME280;61643;49.564;17.412;2023-03-23T07:40:18;97823.47;;;10.21;80.07
73429;BME280;61643;49.564;17.412;2023-03-23T07:42:46;97821.34;;;10.28;79.40
73429;BME280;61643;49.564;17.412;2023-03-23T07:45:15;97824.06;;;10.33;79.24
73429;BME280;61643;49.564;17.412;2023-03-23T07:47:41;97821.91;;;10.30;79.62
73429;BME280;61643;49.564;17.412;2023-03-23T07:50:08;97826.75;;;10.33;79.46
73429;BME280;61643;49.564;17.412;2023-03-23T07:52:35;97823.53;;;10.36;80.11
73429;BME280;61643;49.564;17.412;2023-03-23T07:55:01;97822.75;;;10.41;79.76
73429;BME280;61643;49.564;17.412;2023-03-23T07:57:29;97829.72;;;10.42;79.59
73429;BME280;61643;49.564;17.412;2023-03-23T07:59:56;97819.00;;;10.57;79.29
73429;BME280;61643;49.564;17.412;2023-03-23T08:02:24;97824.69;;;10.76;79.29
73429;BME280;61643;49.564;17.412;2023-03-23T08:04:50;97820.41;;;10.90;78.75
73429;BME280;61643;49.564;17.412;2023-03-23T08:07:17;97812.84;;;11.07;79.16
73429;BME280;61643;49.564;17.412;2023-03-23T08:09:45;97812.84;;;11.22;76.94
73429;BME280;61643;49.564;17.412;2023-03-23T08:12:12;97822.00;;;11.26;75.50
73429;BME280;61643;49.564;17.412;2023-03-23T08:14:38;97821.44;;;11.40;76.00
73429;BME280;61643;49.564;17.412;2023-03-23T08:17:05;97817.41;;;11.57;76.53
73429;BME280;61643;49.564;17.412;2023-03-23T08:19:31;97819.53;;;11.80;75.92
73429;BME280;61643;49.564;17.412;2023-03-23T08:22:05;97819.78;;;11.89;74.33
73429;BME280;61643;49.564;17.412;2023-03-23T08:24:32;97814.09;;;11.96;74.04
73429;BME280;61643;49.564;17.412;2023-03-23T08:26:59;97817.56;;;12.06;74.62
73429;BME280;61643;49.564;17.412;2023-03-23T08:29:26;97815.94;;;12.10;73.34
73429;BME280;61643;49.564;17.412;2023-03-23T08:31:52;97815.41;;;12.03;73.93
73429;BME280;61643;49.564;17.412;2023-03-23T08:34:19;97815.97;;;12.00;74.73
73429;BME280;61643;49.564;17.412;2023-03-23T08:36:45;97824.38;;;11.94;74.51
73429;BME280;61643;49.564;17.412;2023-03-23T08:39:12;97828.16;;;11.82;76.34
73429;BME280;61643;49.564;17.412;2023-03-23T08:41:41;97827.34;;;11.77;76.78
73429;BME280;61643;49.564;17.412;2023-03-23T08:44:07;97836.53;;;11.71;76.57
73429;BME280;61643;49.564;17.412;2023-03-23T08:46:34;97839.75;;;11.63;77.00
73429;BME280;61643;49.564;17.412;2023-03-23T08:49:00;97839.75;;;11.63;78.85
73429;BME280;61643;49.564;17.412;2023-03-23T08:51:26;97837.88;;;11.73;77.94
73429;BME280;61643;49.564;17.412;2023-03-23T08:53:53;97833.25;;;11.89;77.84
73429;BME280;61643;49.564;17.412;2023-03-23T08:56:19;97825.13;;;12.04;76.83
73429;BME280;61643;49.564;17.412;2023-03-23T08:58:45;97820.19;;;12.21;76.46
73429;BME280;61643;49.564;17.412;2023-03-23T09:01:11;97813.38;;;12.34;74.48
73429;BME280;61643;49.564;17.412;2023-03-23T09:03:37;97816.56;;;12.51;75.59
73429;BME280;61643;49.564;17.412;2023-03-23T09:06:06;97815.59;;;12.71;76.21
73429;BME280;61643;49.564;17.412;2023-03-23T09:08:33;97814.63;;;12.96;75.45
73429;BME280;61643;49.564;17.412;2023-03-23T09:11:03;97817.97;;;13.21;72.18
73429;BME280;61643;49.564;17.412;2023-03-23T09:13:29;97821.06;;;13.39;72.10
73429;BME280;61643;49.564;17.412;2023-03-23T09:15:55;97817.16;;;13.50;71.66
73429;BME280;61643;49.564;17.412;2023-03-23T09:18:21;97819.88;;;13.50;70.89
73429;BME280;61643;49.564;17.412;2023-03-23T09:20:49;97805.97;;;13.61;70.96
73429;BME280;61643;49.564;17.412;2023-03-23T09:23:16;97807.38;;;13.82;70.36
73429;BME280;61643;49.564;17.412;2023-03-23T09:25:42;97802.03;;;14.01;70.03
73429;BME280;61643;49.564;17.412;2023-03-23T09:28:09;97805.47;;;14.07;70.62
73429;BME280;61643;49.564;17.412;2023-03-23T09:30:37;97806.44;;;14.16;70.70
73429;BME280;61643;49.564;17.412;2023-03-23T09:33:04;97798.03;;;14.17;70.19
73429;BME280;61643;49.564;17.412;2023-03-23T09:35:31;97785.72;;;14.06;68.11
73429;BME280;61643;49.564;17.412;2023-03-23T09:38:00;97787.91;;;14.04;69.67
73429;BME280;61643;49.564;17.412;2023-03-23T09:40:47;97789.06;;;13.98;69.76
73429;BME280;61643;49.564;17.412;2023-03-23T09:43:32;97778.59;;;13.92;69.30
73429;BME280;61643;49.564;17.412;2023-03-23T09:48:56;97780.81;;;14.08;68.97
73429;BME280;61643;49.564;17.412;2023-03-23T09:51:46;97779.25;;;14.26;68.67
73429;BME280;61643;49.564;17.412;2023-03-23T09:54:34;97774.25;;;14.38;67.63
73429;BME280;61643;49.564;17.412;2023-03-23T09:57:03;97771.91;;;14.50;67.00
73429;BME280;61643;49.564;17.412;2023-03-23T09:59:51;97766.63;;;14.59;66.86
73429;BME280;61643;49.564;17.412;2023-03-23T10:02:24;97754.56;;;14.70;65.80
73429;BME280;61643;49.564;17.412;2023-03-23T10:04:54;97761.63;;;14.85;64.79
73429;BME280;61643;49.564;17.412;2023-03-23T10:07:23;97755.78;;;14.96;66.86
73429;BME280;61643;49.564;17.412;2023-03-23T10:09:56;97764.25;;;15.08;65.57
73429;BME280;61643;49.564;17.412;2023-03-23T10:23:13;97744.88;;;15.88;62.57
73429;BME280;61643;49.564;17.412;2023-03-23T10:25:48;97734.66;;;15.99;61.10
73429;BME280;61643;49.564;17.412;2023-03-23T10:28:20;97731.53;;;16.05;60.90
73429;BME280;61643;49.564;17.412;2023-03-23T10:30:55;97731.78;;;16.17;60.20
73429;BME280;61643;49.564;17.412;2023-03-23T10:33:29;97731.59;;;16.28;60.18
73429;BME280;61643;49.564;17.412;2023-03-23T10:38:31;97720.56;;;16.46;60.06
73429;BME280;61643;49.564;17.412;2023-03-23T10:41:01;97721.56;;;16.50;59.61
73429;BME280;61643;49.564;17.412;2023-03-23T10:43:31;97707.28;;;16.45;58.22
73429;BME280;61643;49.564;17.412;2023-03-23T10:46:03;97706.19;;;16.46;58.96
73429;BME280;61643;49.564;17.412;2023-03-23T10:48:36;97708.16;;;16.54;57.86
73429;BME280;61643;49.564;17.412;2023-03-23T10:51:06;97721.53;;;16.64;57.73
73429;BME280;61643;49.564;17.412;2023-03-23T10:53:37;97716.16;;;16.72;58.29
73429;BME280;61643;49.564;17.412;2023-03-23T10:56:05;97709.38;;;16.84;58.69
73429;BME280;61643;49.564;17.412;2023-03-23T10:58:44;97714.25;;;16.95;57.06
73429;BME280;61643;49.564;17.412;2023-03-23T11:01:12;97707.66;;;17.10;57.79
73429;BME280;61643;49.564;17.412;2023-03-23T11:03:43;97709.00;;;17.21;57.31
73429;BME280;61643;49.564;17.412;2023-03-23T11:06:26;97704.25;;;17.35;56.69
73429;BME280;61643;49.564;17.412;2023-03-23T11:09:02;97706.69;;;17.45;54.24
73429;BME280;61643;49.564;17.412;2023-03-23T11:11:31;97706.81;;;17.40;57.21
73429;BME280;61643;49.564;17.412;2023-03-23T11:14:00;97697.97;;;17.26;55.97
73429;BME280;61643;49.564;17.412;2023-03-23T11:16:29;97697.44;;;17.15;56.84
73429;BME280;61643;49.564;17.412;2023-03-23T11:18:58;97696.44;;;17.11;56.19
73429;BME280;61643;49.564;17.412;2023-03-23T11:21:25;97696.25;;;17.08;55.66
73429;BME280;61643;49.564;17.412;2023-03-23T11:23:55;97693.88;;;17.06;54.70
73429;BME280;61643;49.564;17.412;2023-03-23T11:26:32;97693.25;;;17.09;56.17
73429;BME280;61643;49.564;17.412;2023-03-23T11:29:17;97695.97;;;17.09;54.66
73429;BME280;61643;49.564;17.412;2023-03-23T11:31:46;97691.81;;;17.12;56.28
73429;BME280;61643;49.564;17.412;2023-03-23T11:34:19;97684.09;;;17.05;55.21
73429;BME280;61643;49.564;17.412;2023-03-23T11:39:29;97690.34;;;17.06;56.00
73429;BME280;61643;49.564;17.412;2023-03-23T11:41:58;97686.81;;;17.05;52.86
73429;BME280;61643;49.564;17.412;2023-03-23T11:44:33;97689.53;;;17.05;55.49
73429;BME280;61643;49.564;17.412;2023-03-23T11:47:39;97696.06;;;17.04;53.50
73429;BME280;61643;49.564;17.412;2023-03-23T11:50:17;97687.13;;;17.04;53.47
73429;BME280;61643;49.564;17.412;2023-03-23T11:58:00;97693.72;;;17.11;53.24
73429;BME280;61643;49.564;17.412;2023-03-23T12:00:30;97680.31;;;17.15;52.17
73429;BME280;61643;49.564;17.412;2023-03-23T12:03:35;97685.91;;;17.18;53.44
73429;BME280;61643;49.564;17.412;2023-03-23T12:26:26;97672.38;;;16.96;52.82
73429;BME280;61643;49.564;17.412;2023-03-23T12:40:20;97672.31;;;16.65;52.37
73429;BME280;61643;49.564;17.412;2023-03-23T12:48:11;97668.75;;;16.43;55.69
73429;BME280;61643;49.564;17.412;2023-03-23T12:51:12;97660.94;;;16.41;54.62
73429;BME280;61643;49.564;17.412;2023-03-23T12:54:01;97658.22;;;16.41;55.25
73429;BME280;61643;49.564;17.412;2023-03-23T12:59:42;97650.91;;;16.50;55.23
73429;BME280;61643;49.564;17.412;2023-03-23T13:04:46;97655.66;;;16.58;54.49
73429;BME280;61643;49.564;17.412;2023-03-23T13:07:21;97647.69;;;16.62;55.06
73429;BME280;61643;49.564;17.412;2023-03-23T13:10:14;97649.31;;;16.63;55.26
73429;BME280;61643;49.564;17.412;2023-03-23T13:12:47;97642.44;;;16.65;55.11
73429;BME280;61643;49.564;17.412;2023-03-23T13:18:16;97650.66;;;16.74;54.67
73429;BME280;61643;49.564;17.412;2023-03-23T13:20:53;97637.44;;;16.81;57.13
73429;BME280;61643;49.564;17.412;2023-03-23T13:23:25;97636.97;;;16.88;56.38
73429;BME280;61643;49.564;17.412;2023-03-23T13:25:56;97631.44;;;16.93;56.79
73429;BME280;61643;49.564;17.412;2023-03-23T13:28:30;97621.09;;;17.03;56.13
73429;BME280;61643;49.564;17.412;2023-03-23T13:31:17;97635.56;;;17.21;55.35
73429;BME280;61643;49.564;17.412;2023-03-23T13:33:53;97633.03;;;17.33;54.24
73429;BME280;61643;49.564;17.412;2023-03-23T13:36:55;97625.88;;;17.46;51.95
73429;BME280;61643;49.564;17.412;2023-03-23T13:39:29;97619.19;;;17.52;51.81
73429;BME280;61643;49.564;17.412;2023-03-23T13:45:05;97617.00;;;17.62;53.42
73429;BME280;61643;49.564;17.412;2023-03-23T13:47:40;97607.41;;;17.74;54.83
73429;BME280;61643;49.564;17.412;2023-03-23T13:50:26;97608.25;;;17.91;50.81
73429;BME280;61643;49.564;17.412;2023-03-23T13:52:57;97618.00;;;17.92;51.50
73429;BME280;61643;49.564;17.412;2023-03-23T14:03:25;97612.56;;;17.75;52.55
73429;BME280;61643;49.564;17.412;2023-03-23T14:11:01;97616.19;;;17.62;52.48
73429;BME280;61643;49.564;17.412;2023-03-23T14:21:39;97618.91;;;17.62;52.96
73429;BME280;61643;49.564;17.412;2023-03-23T14:24:16;97622.78;;;17.61;52.35
73429;BME280;61643;49.564;17.412;2023-03-23T14:26:43;97623.25;;;17.63;51.68
73429;BME280;61643;49.564;17.412;2023-03-23T14:29:12;97618.13;;;17.61;51.92
73429;BME280;61643;49.564;17.412;2023-03-23T14:31:39;97622.13;;;17.64;50.83
73429;BME280;61643;49.564;17.412;2023-03-23T14:34:14;97622.94;;;17.64;51.59
73429;BME280;61643;49.564;17.412;2023-03-23T14:36:42;97622.78;;;17.61;51.84
73429;BME280;61643;49.564;17.412;2023-03-23T14:41:42;97619.34;;;17.55;50.60
73429;BME280;61643;49.564;17.412;2023-03-23T14:44:14;97611.50;;;17.54;51.01
73429;BME280;61643;49.564;17.412;2023-03-23T14:46:43;97614.53;;;17.52;51.41
73429;BME280;61643;49.564;17.412;2023-03-23T14:49:14;97609.41;;;17.51;52.58
73429;BME280;61643;49.564;17.412;2023-03-23T14:51:51;97609.72;;;17.49;50.88
73429;BME280;61643;49.564;17.412;2023-03-23T14:54:23;97602.69;;;17.48;51.69
73429;BME280;61643;49.564;17.412;2023-03-23T14:56:50;97603.63;;;17.44;52.30
73429;BME280;61643;49.564;17.412;2023-03-23T14:59:16;97603.16;;;17.42;52.43
73429;BME280;61643;49.564;17.412;2023-03-23T15:01:43;97597.84;;;17.37;51.74
73429;BME280;61643;49.564;17.412;2023-03-23T15:04:18;97604.41;;;17.36;52.00
73429;BME280;61643;49.564;17.412;2023-03-23T15:07:00;97593.38;;;17.32;51.61